Time;durP1;ratioP1;P1;durP2;ratioP2;P2;SDS_P1;SDS_P2;PMS_P1;PMS_P2;Temp;Humidity;BMP_temperature;BMP_pressure;BME280_temperature;BME280_humidity;BME280_pressure;Samples;Min_cycle;Max_cycle;Signal;HPM_P1;HPM_P2
2023/09/28 00:03:44;;;;;;;;;;;;;;;21.80;53.72;95884.03;10525167;28;1879;-70
2023/09/28 00:08:45;;;;;;;;;;;;;;;21.79;53.46;95885.09;10523006;28;1906;-71
2023/09/28 00:13:45;;;;;;;;;;;;;;;21.79;53.66;95893.81;10527721;28;1866;-70
2023/09/28 00:18:46;;;;;;;;;;;;;;;21.79;53.59;95893.00;10565538;27;1867;-71
2023/09/28 00:23:46;;;;;;;;;;;;;;;21.79;53.44;95887.72;10511257;28;2726;-70
2023/09/28 00:28:46;;;;;;;;;;;;;;;21.78;53.33;95896.72;10522000;28;1959;-71
2023/09/28 00:33:47;;;;;;;;;;;;;;;21.77;53.58;95890.66;10534458;28;2044;-71
2023/09/28 00:38:47;;;;;;;;;;;;;;;21.78;53.46;95892.22;10526749;28;1943;-72
2023/09/28 00:43:47;;;;;;;;;;;;;;;21.76;53.60;95894.34;10525426;28;4591;-70
2023/09/28 00:48:53;;;;;;;;;;;;;;;21.77;53.55;95895.94;10514407;28;2007;-71
2023/09/28 00:53:54;;;;;;;;;;;;;;;21.77;53.30;95895.13;10531892;28;1942;-71
2023/09/28 00:58:56;;;;;;;;;;;;;;;21.76;53.28;95899.63;10526948;27;2036;-70
2023/09/28 01:04:00;;;;;;;;;;;;;;;21.75;53.52;95898.06;10534238;28;1897;-71
2023/09/28 01:09:00;;;;;;;;;;;;;;;21.75;53.20;95897.25;10521196;28;2715;-70
2023/09/28 01:14:01;;;;;;;;;;;;;;;21.75;53.50;95907.81;10522548;28;1927;-70
2023/09/28 01:19:01;;;;;;;;;;;;;;;21.74;53.33;95914.19;10530662;28;1976;-71
2023/09/28 01:24:02;;;;;;;;;;;;;;;21.74;53.27;95914.94;10525156;28;2245;-72
2023/09/28 01:29:02;;;;;;;;;;;;;;;21.74;53.17;95916.81;10527490;28;2003;-70
2023/09/28 01:34:03;;;;;;;;;;;;;;;21.74;53.29;95916.81;10544747;27;1937;-71
2023/09/28 01:39:07;;;;;;;;;;;;;;;21.74;53.10;95919.44;10528670;28;2022;-70
2023/09/28 01:44:07;;;;;;;;;;;;;;;21.74;53.16;95916.81;10546437;28;1956;-70
2023/09/28 01:49:07;;;;;;;;;;;;;;;21.73;52.97;95910.75;10523922;28;1972;-71
2023/09/28 01:54:08;;;;;;;;;;;;;;;21.72;53.26;95909.16;10530425;28;2535;-70
2023/09/28 01:59:08;;;;;;;;;;;;;;;21.73;53.33;95916.03;10534897;28;1969;-71
2023/09/28 02:04:08;;;;;;;;;;;;;;;21.70;53.17;95906.00;10532419;28;2005;-71
2023/09/28 02:09:10;;;;;;;;;;;;;;;21.73;53.21;95915.22;10530269;28;2009;-71
2023/09/28 02:14:12;;;;;;;;;;;;;;;21.72;52.93;95918.94;10532712;28;1831;-71
2023/09/28 02:19:13;;;;;;;;;;;;;;;21.72;53.06;95916.31;10537688;28;2017;-70
2023/09/28 02:24:13;;;;;;;;;;;;;;;21.72;53.20;95924.22;10526467;28;1993;-70
2023/09/28 02:29:13;;;;;;;;;;;;;;;21.70;53.22;95924.47;10535510;28;1913;-71
2023/09/28 02:34:13;;;;;;;;;;;;;;;21.71;53.14;95928.69;10528685;28;1723;-70
2023/09/28 02:39:14;;;;;;;;;;;;;;;21.72;53.16;95929.50;10535045;28;2574;-71
2023/09/28 02:44:14;;;;;;;;;;;;;;;21.69;53.16;95922.13;10539285;28;4535;-71
2023/09/28 02:49:15;;;;;;;;;;;;;;;21.70;52.90;95928.97;10533621;28;1910;-71
2023/09/28 02:54:16;;;;;;;;;;;;;;;21.70;52.77;95929.75;10523977;28;1964;-71
2023/09/28 02:59:16;;;;;;;;;;;;;;;21.69;53.14;95928.19;10537141;28;1944;-71
2023/09/28 03:04:17;;;;;;;;;;;;;;;21.69;53.02;95935.31;10519628;28;1969;-71
2023/09/28 03:09:17;;;;;;;;;;;;;;;21.69;52.91;95935.31;10528116;28;1945;-71
2023/09/28 03:14:19;;;;;;;;;;;;;;;21.68;52.83;95944.28;10532551;28;1909;-70
2023/09/28 03:19:19;;;;;;;;;;;;;;;21.67;52.92;95938.22;10526292;28;1960;-71
2023/09/28 03:24:19;;;;;;;;;;;;;;;21.68;52.92;95945.06;10532008;28;2579;-71
2023/09/28 03:29:19;;;;;;;;;;;;;;;21.67;52.95;95943.50;10535081;28;1989;-70
2023/09/28 03:34:20;;;;;;;;;;;;;;;21.67;52.90;95945.34;10536433;28;1943;-71
2023/09/28 03:39:21;;;;;;;;;;;;;;;21.67;52.78;95953.25;10526441;28;1897;-70
2023/09/28 03:44:21;;;;;;;;;;;;;;;21.67;52.82;95955.91;10535604;28;4738;-70
2023/09/28 03:49:21;;;;;;;;;;;;;;;21.67;52.99;95950.63;10522207;28;1940;-70
2023/09/28 03:54:21;;;;;;;;;;;;;;;21.66;52.87;95955.09;10533612;28;1893;-70
2023/09/28 03:59:22;;;;;;;;;;;;;;;21.66;52.66;95956.94;10518776;28;1910;-70
2023/09/28 04:04:22;;;;;;;;;;;;;;;21.66;52.81;95959.59;10513767;28;1942;-70
2023/09/28 04:09:25;;;;;;;;;;;;;;;21.65;52.74;95960.66;10515460;28;2775;-70
2023/09/28 04:14:25;;;;;;;;;;;;;;;21.65;52.67;95964.09;10526315;28;1982;-70
2023/09/28 04:19:25;;;;;;;;;;;;;;;21.65;52.79;95965.94;10534130;28;2032;-70
2023/09/28 04:24:25;;;;;;;;;;;;;;;21.65;52.83;95963.31;10525497;28;1953;-70
2023/09/28 04:29:26;;;;;;;;;;;;;;;21.63;52.69;95955.69;10529861;28;1905;-70
2023/09/28 04:34:26;;;;;;;;;;;;;;;21.63;52.71;95960.94;10537383;28;1834;-70
2023/09/28 04:39:27;;;;;;;;;;;;;;;21.63;52.75;95962.78;10527842;28;2004;-70
2023/09/28 04:44:27;;;;;;;;;;;;;;;21.63;52.32;95962.78;10534892;28;4621;-70
2023/09/28 04:49:28;;;;;;;;;;;;;;;21.62;52.79;95964.63;10529821;28;1918;-70
2023/09/28 04:54:28;;;;;;;;;;;;;;;21.62;52.56;95969.13;10541434;27;2708;-70
2023/09/28 04:59:29;;;;;;;;;;;;;;;21.61;52.76;95959.66;10516879;28;1892;-70
2023/09/28 05:04:29;;;;;;;;;;;;;;;21.60;52.66;95969.41;10526562;28;1945;-70
2023/09/28 05:09:29;;;;;;;;;;;;;;;21.61;52.49;95970.19;10528981;28;1929;-70
2023/09/28 05:14:29;;;;;;;;;;;;;;;21.60;52.66;95971.25;10533631;28;1898;-70
2023/09/28 05:19:30;;;;;;;;;;;;;;;21.61;52.55;95975.47;10524860;28;1901;-69
2023/09/28 05:24:30;;;;;;;;;;;;;;;21.61;52.56;95976.28;10523148;28;1855;-68
2023/09/28 05:29:30;;;;;;;;;;;;;;;21.62;52.50;95969.91;10511482;28;2236;-70
2023/09/28 05:34:30;;;;;;;;;;;;;;;21.63;52.34;95975.97;10522683;28;1815;-70
2023/09/28 05:39:31;;;;;;;;;;;;;;;21.63;52.61;95974.16;10519433;28;2720;-69
2023/09/28 05:44:32;;;;;;;;;;;;;;;21.64;52.51;95978.34;10525978;28;4527;-69
2023/09/28 05:49:32;;;;;;;;;;;;;;;21.64;52.52;95980.97;10533145;28;2024;-68
2023/09/28 05:54:32;;;;;;;;;;;;;;;21.64;52.58;95988.88;10526897;28;1824;-69
2023/09/28 05:59:32;;;;;;;;;;;;;;;21.64;52.69;95991.53;10536553;28;1796;-69
2023/09/28 06:04:33;;;;;;;;;;;;;;;21.65;52.60;95987.03;10533538;28;1812;-69
2023/09/28 06:09:33;;;;;;;;;;;;;;;21.65;52.66;95990.47;10514000;28;1905;-69
2023/09/28 06:14:33;;;;;;;;;;;;;;;21.65;52.74;95997.59;10530491;28;1867;-69
2023/09/28 06:19:34;;;;;;;;;;;;;;;21.64;52.68;95996.81;10534123;28;1812;-69
2023/09/28 06:24:36;;;;;;;;;;;;;;;21.66;52.61;95991.25;10525108;28;2616;-70
2023/09/28 06:29:36;;;;;;;;;;;;;;;21.65;52.71;96002.88;10518466;28;2001;-69
2023/09/28 06:34:37;;;;;;;;;;;;;;;21.65;52.79;95997.59;10535684;28;1938;-69
2023/09/28 06:39:37;;;;;;;;;;;;;;;21.65;52.86;96010.78;10567240;27;1866;-70
2023/09/28 06:44:38;;;;;;;;;;;;;;;21.65;52.87;96008.16;10533072;28;4573;-70
2023/09/28 06:49:38;;;;;;;;;;;;;;;21.66;52.46;96020.28;10534039;28;1967;-69
2023/09/28 06:54:38;;;;;;;;;;;;;;;21.64;52.87;96025.81;10529851;28;1867;-69
2023/09/28 06:59:38;;;;;;;;;;;;;;;21.65;52.58;96031.91;10516918;28;1991;-69
2023/09/28 07:04:39;;;;;;;;;;;;;;;21.64;52.89;96025.81;10539854;28;1671;-70
2023/09/28 07:09:39;;;;;;;;;;;;;;;21.65;52.79;96027.41;10539346;28;1918;-68
2023/09/28 07:14:39;;;;;;;;;;;;;;;21.64;52.80;96031.09;10528192;28;2593;-70
2023/09/28 07:19:39;;;;;;;;;;;;;;;21.65;52.86;96039.81;10531279;28;1828;-69
2023/09/28 07:24:40;;;;;;;;;;;;;;;21.64;52.76;96044.28;10524684;28;1958;-69
2023/09/28 07:29:40;;;;;;;;;;;;;;;21.65;52.71;96039.81;10529963;28;1971;-70
2023/09/28 07:34:42;;;;;;;;;;;;;;;21.64;52.59;96049.56;10527898;28;1963;-69
2023/09/28 07:39:42;;;;;;;;;;;;;;;21.65;52.58;96060.91;10520054;28;2045;-69
2023/09/28 07:44:42;;;;;;;;;;;;;;;21.65;52.66;96056.44;10525501;28;4611;-70
2023/09/28 07:49:43;;;;;;;;;;;;;;;21.66;52.78;96067.75;10521532;28;1913;-69
2023/09/28 07:54:43;;;;;;;;;;;;;;;21.66;52.79;96073.84;10527547;28;1835;-69
2023/09/28 07:59:43;;;;;;;;;;;;;;;21.66;52.58;96062.47;10526936;28;2547;-68
2023/09/28 08:04:44;;;;;;;;;;;;;;;21.66;52.68;96065.91;10525267;28;1948;-69
2023/09/28 08:09:44;;;;;;;;;;;;;;;21.68;52.79;96070.91;10514416;28;1926;-69
2023/09/28 08:14:45;;;;;;;;;;;;;;;21.68;53.04;96070.91;10527857;28;1873;-69
2023/09/28 08:19:45;;;;;;;;;;;;;;;21.69;52.98;96072.50;10527731;28;1840;-70
2023/09/28 08:24:46;;;;;;;;;;;;;;;21.68;52.99;96071.72;10521851;28;1938;-69
2023/09/28 08:29:46;;;;;;;;;;;;;;;21.69;52.92;96067.22;10557739;27;2086;-70
2023/09/28 08:34:46;;;;;;;;;;;;;;;21.70;52.87;96068.81;10518890;28;1972;-70
2023/09/28 08:39:46;;;;;;;;;;;;;;;21.70;52.90;96068.81;10527145;28;1848;-70
2023/09/28 08:44:49;;;;;;;;;;;;;;;21.71;52.69;96070.38;10521434;28;4417;-70
2023/09/28 08:49:50;;;;;;;;;;;;;;;21.71;52.90;96065.09;10508207;28;1979;-70
2023/09/28 08:54:50;;;;;;;;;;;;;;;21.71;52.57;96075.66;10517903;28;1824;-70
2023/09/28 08:59:52;;;;;;;;;;;;;;;21.72;52.75;96072.75;10520031;28;1809;-69
2023/09/28 09:04:52;;;;;;;;;;;;;;;21.74;52.53;96069.84;10511962;28;1883;-69
2023/09/28 09:09:53;;;;;;;;;;;;;;;21.74;52.84;96080.41;10521652;28;1975;-69
2023/09/28 09:14:53;;;;;;;;;;;;;;;21.74;52.45;96080.41;10538832;27;1860;-69
2023/09/28 09:19:54;;;;;;;;;;;;;;;21.75;52.81;96079.31;10513959;28;1907;-69
2023/09/28 09:24:54;;;;;;;;;;;;;;;21.76;52.57;96073.00;10519468;28;2005;-69
2023/09/28 09:30:07;;;;;;;;;;;;;;;21.77;52.46;96074.56;10529449;28;1968;-69
2023/09/28 09:35:08;;;;;;;;;;;;;;;21.78;52.83;96070.88;10525001;28;2036;-68
2023/09/28 09:40:12;;;;;;;;;;;;;;;21.78;52.80;96062.97;10516677;28;4756;-69
2023/09/28 09:45:15;;;;;;;;;;;;;;;21.78;52.93;96060.31;10515087;28;2217;-69
2023/09/28 09:50:16;;;;;;;;;;;;;;;21.80;52.68;96061.59;10525210;28;1914;-70
2023/09/28 09:55:16;;;;;;;;;;;;;;;21.81;52.80;96057.13;10520943;28;1863;-69
2023/09/28 10:00:18;;;;;;;;;;;;;;;21.81;52.82;96059.75;10526789;28;1950;-70
2023/09/28 10:05:21;;;;;;;;;;;;;;;21.82;52.64;96066.66;10527678;28;1873;-70
2023/09/28 10:10:22;;;;;;;;;;;;;;;21.84;52.62;96069.81;10559950;27;2106;-70
2023/09/28 10:15:22;;;;;;;;;;;;;;;21.84;52.66;96060.03;10525007;28;1914;-71
2023/09/28 10:20:23;;;;;;;;;;;;;;;21.85;52.73;96056.34;10542619;27;1899;-70
2023/09/28 10:25:24;;;;;;;;;;;;;;;21.86;52.72;96063.19;10534762;28;1807;-70
2023/09/28 10:30:25;;;;;;;;;;;;;;;21.86;52.42;96057.91;10533481;28;2557;-70
2023/09/28 10:35:28;;;;;;;;;;;;;;;21.88;52.38;96059.50;10528166;28;2042;-70
2023/09/28 10:40:28;;;;;;;;;;;;;;;21.90;52.54;96052.09;10533483;28;4625;-70
2023/09/28 10:45:30;;;;;;;;;;;;;;;21.90;52.69;96055.53;10533430;28;1931;-70
2023/09/28 10:50:30;;;;;;;;;;;;;;;21.91;52.68;96048.41;10532336;28;1888;-70
2023/09/28 10:55:31;;;;;;;;;;;;;;;21.92;52.40;96050.75;10527933;28;1933;-71
2023/09/28 11:00:32;;;;;;;;;;;;;;;21.93;52.80;96049.69;10532037;28;1924;-70
2023/09/28 11:05:32;;;;;;;;;;;;;;;21.93;52.69;96047.03;10527505;28;2040;-69
2023/09/28 11:10:35;;;;;;;;;;;;;;;21.95;52.82;96044.16;10529258;28;1910;-69
2023/09/28 11:15:35;;;;;;;;;;;;;;;21.95;52.69;96054.72;10535322;28;2529;-70
2023/09/28 11:20:35;;;;;;;;;;;;;;;21.96;52.50;96051.78;10524114;28;1919;-70
2023/09/28 11:25:38;;;;;;;;;;;;;;;21.98;52.85;96051.50;10514567;28;1859;-70
2023/09/28 11:30:38;;;;;;;;;;;;;;;22.00;52.59;96047.53;10520731;28;1993;-70
2023/09/28 11:35:38;;;;;;;;;;;;;;;22.01;52.89;96049.09;10532299;28;1952;-70
2023/09/28 11:40:38;;;;;;;;;;;;;;;22.06;52.80;96050.91;10511769;28;4587;-69
2023/09/28 11:45:39;;;;;;;;;;;;;;;22.07;52.32;96049.88;10523119;28;1884;-69
2023/09/28 11:50:39;;;;;;;;;;;;;;;22.08;51.65;96043.50;10528356;28;1971;-69
2023/09/28 11:55:39;;;;;;;;;;;;;;;22.09;48.77;96042.47;10523275;28;2071;-70
2023/09/28 12:00:40;;;;;;;;;;;;;;;22.06;49.10;96030.59;10512280;28;2213;-69
2023/09/28 12:05:40;;;;;;;;;;;;;;;22.07;49.70;96026.88;10529738;28;1910;-70
2023/09/28 12:10:40;;;;;;;;;;;;;;;22.10;48.48;96025.53;10517249;28;1925;-70
2023/09/28 12:15:41;;;;;;;;;;;;;;;22.09;49.06;96032.66;10523320;28;2015;-70
2023/09/28 12:20:41;;;;;;;;;;;;;;;22.11;48.36;96035.84;10498241;28;1929;-69
2023/09/28 12:25:41;;;;;;;;;;;;;;;22.12;48.67;96029.47;10529020;27;1880;-70
2023/09/28 12:30:42;;;;;;;;;;;;;;;22.20;47.30;96026.25;10510676;28;1965;-70
2023/09/28 12:35:42;;;;;;;;;;;;;;;22.18;46.53;96012.53;10533262;27;1868;-70
2023/09/28 12:40:42;;;;;;;;;;;;;;;22.23;43.80;96001.16;10525881;28;4705;-71
2023/09/28 12:45:43;;;;;;;;;;;;;;;22.21;45.04;96003.28;10531203;28;2545;-70
2023/09/28 12:50:50;;;;;;;;;;;;;;;22.17;45.91;95989.06;10526432;28;1905;-70
2023/09/28 12:55:50;;;;;;;;;;;;;;;22.19;46.09;95987.72;10530516;28;1931;-70
2023/09/28 13:00:50;;;;;;;;;;;;;;;22.21;45.01;95984.78;10522578;28;1912;-71
2023/09/28 13:05:51;;;;;;;;;;;;;;;22.21;43.46;95979.50;10527246;28;1975;-70
2023/09/28 13:10:51;;;;;;;;;;;;;;;22.16;44.62;95975.06;10520115;28;1824;-71
2023/09/28 13:15:53;;;;;;;;;;;;;;;22.16;45.22;95976.91;10531813;28;1912;-70
2023/09/28 13:20:55;;;;;;;;;;;;;;;22.18;44.97;95974.78;10526433;28;1836;-70
2023/09/28 13:25:55;;;;;;;;;;;;;;;22.17;45.15;95966.09;10522959;28;1945;-71
2023/09/28 13:30:57;;;;;;;;;;;;;;;22.19;45.48;95965.81;10521280;28;2881;-71
2023/09/28 13:35:57;;;;;;;;;;;;;;;22.20;45.56;95956.81;10553272;27;2027;-70
2023/09/28 13:40:58;;;;;;;;;;;;;;;22.21;46.01;95967.09;10516248;28;4507;-71
2023/09/28 13:45:58;;;;;;;;;;;;;;;22.21;46.07;95972.38;10532332;28;1996;-71
2023/09/28 13:50:58;;;;;;;;;;;;;;;22.21;46.11;95967.09;10516452;28;1887;-70
2023/09/28 13:55:59;;;;;;;;;;;;;;;22.22;46.37;95973.16;10534740;28;1962;-70
2023/09/28 14:00:59;;;;;;;;;;;;;;;22.22;46.66;95981.88;10519824;28;2044;-70
2023/09/28 14:06:00;;;;;;;;;;;;;;;22.22;46.83;95971.31;10526008;28;1965;-70
2023/09/28 14:11:00;;;;;;;;;;;;;;;22.23;46.91;95966.81;10522456;28;1835;-70
2023/09/28 14:16:01;;;;;;;;;;;;;;;22.24;46.44;95966.53;10527698;28;2560;-71
2023/09/28 14:21:01;;;;;;;;;;;;;;;22.21;46.36;95964.47;10526802;28;1943;-71
2023/09/28 14:26:03;;;;;;;;;;;;;;;22.20;45.98;95957.59;10525703;28;1995;-71
2023/09/28 14:31:03;;;;;;;;;;;;;;;22.20;45.62;95947.03;10532287;28;1839;-71
2023/09/28 14:36:05;;;;;;;;;;;;;;;22.20;46.05;95947.03;10519393;28;1809;-71
2023/09/28 14:41:05;;;;;;;;;;;;;;;22.20;46.57;95933.84;10518425;28;4637;-72
2023/09/28 14:46:06;;;;;;;;;;;;;;;22.20;46.25;95930.41;10529248;28;1958;-70
2023/09/28 14:51:07;;;;;;;;;;;;;;;22.20;46.47;95928.56;10511576;28;1899;-71
2023/09/28 14:56:07;;;;;;;;;;;;;;;22.21;46.46;95921.41;10531608;28;1906;-70
2023/09/28 15:01:08;;;;;;;;;;;;;;;22.20;46.55;95923.25;10536540;28;2668;-70
2023/09/28 15:06:08;;;;;;;;;;;;;;;22.21;46.60;95919.56;10543610;27;1913;-71
2023/09/28 15:11:08;;;;;;;;;;;;;;;22.22;46.96;95915.84;10525213;28;2052;-70
2023/09/28 15:16:09;;;;;;;;;;;;;;;22.22;46.61;95917.69;10517749;28;1947;-70
2023/09/28 15:21:12;;;;;;;;;;;;;;;22.22;46.67;95918.50;10525890;28;1889;-69
2023/09/28 15:26:13;;;;;;;;;;;;;;;22.22;46.57;95909.78;10520656;28;1933;-70
2023/09/28 15:31:13;;;;;;;;;;;;;;;22.21;46.53;95905.59;10520982;28;2279;-71
2023/09/28 15:36:14;;;;;;;;;;;;;;;22.22;46.38;95905.28;10522758;28;1883;-69
2023/09/28 15:41:36;;;;;;;;;;;;;;;22.22;46.82;95902.66;10529623;28;1880;-69
2023/09/28 15:46:37;;;;;;;;;;;;;;;22.22;46.61;95902.66;10520161;28;2549;-71
2023/09/28 15:51:37;;;;;;;;;;;;;;;22.22;46.52;95889.44;10532636;28;2123;-68
2023/09/28 15:56:38;;;;;;;;;;;;;;;22.22;46.81;95891.28;10526736;28;1850;-68
2023/09/28 16:01:41;;;;;;;;;;;;;;;22.19;46.71;95887.38;10517832;28;1851;-70
2023/09/28 16:06:41;;;;;;;;;;;;;;;22.20;47.04;95899.50;10513750;28;2468;-70
2023/09/28 16:11:42;;;;;;;;;;;;;;;22.19;46.92;95897.94;10515930;28;1950;-70
2023/09/28 16:16:42;;;;;;;;;;;;;;;22.19;46.92;95905.88;10532971;28;1858;-70
2023/09/28 16:21:42;;;;;;;;;;;;;;;22.19;46.87;95903.22;10523481;28;1993;-71
2023/09/28 16:26:42;;;;;;;;;;;;;;;22.18;46.53;95906.13;10524116;28;1971;-70
2023/09/28 16:31:43;;;;;;;;;;;;;;;22.17;47.11;95915.13;10523929;28;2938;-73
2023/09/28 16:36:43;;;;;;;;;;;;;;;22.18;46.87;95911.41;10519445;28;1922;-71
2023/09/28 16:41:43;;;;;;;;;;;;;;;22.14;47.05;95913.81;10525164;28;1849;-70
2023/09/28 16:46:44;;;;;;;;;;;;;;;22.15;46.71;95920.69;10523365;28;1986;-70
2023/09/28 16:51:44;;;;;;;;;;;;;;;22.16;47.20;95921.47;10517613;28;1878;-71
2023/09/28 16:56:44;;;;;;;;;;;;;;;22.14;46.86;95923.59;10521098;28;1887;-71
2023/09/28 17:01:45;;;;;;;;;;;;;;;22.17;47.10;95929.13;10528807;28;1886;-72
2023/09/28 17:06:45;;;;;;;;;;;;;;;22.21;47.29;95926.69;10516453;28;1916;-69
2023/09/28 17:11:45;;;;;;;;;;;;;;;22.23;47.08;95929.84;10537512;27;1965;-71
2023/09/28 17:16:46;;;;;;;;;;;;;;;22.25;47.58;95936.44;10513996;28;1964;-71
2023/09/28 17:21:47;;;;;;;;;;;;;;;22.29;47.23;95934.00;10550070;27;1879;-70
2023/09/28 17:26:47;;;;;;;;;;;;;;;22.28;47.41;95938.50;10527384;28;1988;-72
2023/09/28 17:31:48;;;;;;;;;;;;;;;22.25;47.23;95936.44;10527954;28;2970;-71
2023/09/28 17:36:48;;;;;;;;;;;;;;;22.24;47.43;95934.84;10519721;28;1902;-71
2023/09/28 17:41:48;;;;;;;;;;;;;;;22.24;47.57;95955.19;10527356;28;4519;-71
2023/09/28 17:46:49;;;;;;;;;;;;;;;22.21;47.36;95956.53;10517078;28;2039;-71
2023/09/28 17:51:49;;;;;;;;;;;;;;;22.20;47.55;95960.22;10514919;28;1804;-71
2023/09/28 17:56:50;;;;;;;;;;;;;;;22.20;47.47;95970.78;10522015;28;1897;-70
2023/09/28 18:01:50;;;;;;;;;;;;;;;22.18;47.75;95974.78;10511633;28;1879;-71
2023/09/28 18:06:50;;;;;;;;;;;;;;;22.17;47.67;95984.56;10521711;28;1972;-72
2023/09/28 18:11:50;;;;;;;;;;;;;;;22.17;47.69;95987.22;10526834;28;1879;-72
2023/09/28 18:16:51;;;;;;;;;;;;;;;22.16;47.87;95998.03;10525673;28;2931;-71
2023/09/28 18:21:51;;;;;;;;;;;;;;;22.16;48.04;96001.47;10516472;28;1878;-70
2023/09/28 18:26:51;;;;;;;;;;;;;;;22.16;48.08;95992.75;10533722;28;1905;-72
2023/09/28 18:31:51;;;;;;;;;;;;;;;22.14;48.23;96006.22;10530558;28;2013;-70
2023/09/28 18:36:52;;;;;;;;;;;;;;;22.14;48.21;96003.59;10537781;28;1862;-70
2023/09/28 18:41:52;;;;;;;;;;;;;;;22.15;47.97;96002.53;10539863;28;4546;-69
2023/09/28 18:46:52;;;;;;;;;;;;;;;22.13;48.16;96009.94;10539366;28;1898;-72
2023/09/28 18:51:53;;;;;;;;;;;;;;;22.14;48.05;96010.72;10524887;28;1865;-72
2023/09/28 18:56:53;;;;;;;;;;;;;;;22.13;48.15;96009.16;10529432;28;1992;-72
2023/09/28 19:01:53;;;;;;;;;;;;;;;22.13;48.14;96015.22;10537516;28;2758;-72
2023/09/28 19:06:54;;;;;;;;;;;;;;;22.13;48.53;96009.16;10502354;28;1914;-70
2023/09/28 19:11:54;;;;;;;;;;;;;;;22.13;48.21;96019.72;10529958;28;1847;-70
2023/09/28 19:16:55;;;;;;;;;;;;;;;22.13;48.42;96003.88;10529770;28;1737;-71
2023/09/28 19:21:55;;;;;;;;;;;;;;;22.14;48.62;96008.88;10517707;28;1992;-70
2023/09/28 19:26:58;;;;;;;;;;;;;;;22.15;48.68;96001.75;10537181;28;1902;-70
2023/09/28 19:31:58;;;;;;;;;;;;;;;22.15;48.71;96007.81;10534121;28;1874;-71
2023/09/28 19:36:58;;;;;;;;;;;;;;;22.14;48.75;96010.72;10536577;28;1899;-70
2023/09/28 19:41:58;;;;;;;;;;;;;;;22.15;48.76;96012.31;10510496;28;4562;-73
2023/09/28 19:46:59;;;;;;;;;;;;;;;22.15;48.59;96009.66;10525910;28;2043;-75
2023/09/28 19:51:59;;;;;;;;;;;;;;;22.16;48.85;96017.31;10525280;28;2023;-72
2023/09/28 19:56:59;;;;;;;;;;;;;;;22.21;48.89;96021.75;10540464;28;1531;-72
2023/09/28 20:01:59;;;;;;;;;;;;;;;22.25;49.38;96022.78;10531619;28;2855;-71
2023/09/28 20:07:00;;;;;;;;;;;;;;;22.29;49.57;96016.66;10527159;28;1965;-72
2023/09/28 20:12:00;;;;;;;;;;;;;;;22.33;49.66;96019.53;10528996;28;1693;-71
2023/09/28 20:17:01;;;;;;;;;;;;;;;22.37;49.97;96021.34;10531412;28;1586;-72
2023/09/28 20:22:01;;;;;;;;;;;;;;;22.46;50.14;96024.94;10526153;28;1621;-74
2023/09/28 20:27:01;;;;;;;;;;;;;;;22.44;50.10;96024.44;10543655;28;1984;-72
2023/09/28 20:32:02;;;;;;;;;;;;;;;22.47;50.12;96023.91;10530299;28;1730;-71
2023/09/28 20:37:02;;;;;;;;;;;;;;;22.51;50.28;96026.75;10518431;28;1911;-72
2023/09/28 20:42:03;;;;;;;;;;;;;;;22.51;50.64;96022.28;10522780;28;4585;-71
2023/09/28 20:47:03;;;;;;;;;;;;;;;22.53;50.33;96021.97;10514613;28;3214;-72
2023/09/28 20:52:03;;;;;;;;;;;;;;;22.52;50.65;96018.53;10520730;28;1839;-72
2023/09/28 20:57:04;;;;;;;;;;;;;;;22.53;50.54;96020.13;10519879;28;1965;-71
2023/09/28 21:02:05;;;;;;;;;;;;;;;22.50;50.74;96018.03;10523585;28;1915;-71
2023/09/28 21:07:11;;;;;;;;;;;;;;;22.46;50.73;96013.63;10534596;28;1901;-72
2023/09/28 21:12:11;;;;;;;;;;;;;;;22.43;50.72;96017.59;10526483;28;1800;-72
2023/09/28 21:17:11;;;;;;;;;;;;;;;22.40;50.88;96015.50;10520393;28;1910;-72
2023/09/28 21:22:12;;;;;;;;;;;;;;;22.39;50.79;96019.22;10528924;28;1807;-73
2023/09/28 21:27:12;;;;;;;;;;;;;;;22.36;50.74;96017.13;10535405;28;1914;-72
2023/09/28 21:32:12;;;;;;;;;;;;;;;22.35;50.88;96018.19;10525728;28;2867;-72
2023/09/28 21:37:13;;;;;;;;;;;;;;;22.33;51.05;96022.97;10510219;28;2092;-72
2023/09/28 21:42:14;;;;;;;;;;;;;;;22.32;50.82;96031.94;10520208;28;4507;-72
2023/09/28 21:47:14;;;;;;;;;;;;;;;22.30;51.18;96028.78;10521138;28;1910;-71
2023/09/28 21:52:14;;;;;;;;;;;;;;;22.28;50.85;96033.56;10509583;28;1851;-71
2023/09/28 21:57:14;;;;;;;;;;;;;;;22.28;50.92;96030.94;10507545;28;1908;-71
2023/09/28 22:02:15;;;;;;;;;;;;;;;22.27;50.86;96026.72;10512322;28;2091;-71
2023/09/28 22:07:15;;;;;;;;;;;;;;;22.27;51.14;96036.50;10532164;28;1910;-71
2023/09/28 22:12:15;;;;;;;;;;;;;;;22.26;50.99;96035.69;10532568;28;1852;-71
2023/09/28 22:17:16;;;;;;;;;;;;;;;22.25;51.12;96018.28;10522319;28;1878;-71
2023/09/28 22:22:16;;;;;;;;;;;;;;;22.24;50.85;96023.81;10539936;28;2946;-71
2023/09/28 22:27:16;;;;;;;;;;;;;;;22.24;50.89;96024.63;10533692;28;1971;-71
2023/09/28 22:32:16;;;;;;;;;;;;;;;22.23;50.90;96023.06;10525329;28;1908;-71
2023/09/28 22:37:17;;;;;;;;;;;;;;;22.22;51.15;96018.84;10557946;27;1918;-72
2023/09/28 22:42:17;;;;;;;;;;;;;;;22.21;51.08;96016.47;10530032;28;1913;-71
2023/09/28 22:47:18;;;;;;;;;;;;;;;22.21;50.84;96027.84;10529137;28;1969;-71
2023/09/28 22:52:18;;;;;;;;;;;;;;;22.20;50.87;96031.53;10531635;28;1890;-71
2023/09/28 22:57:18;;;;;;;;;;;;;;;22.20;50.92;96020.97;10530655;28;1654;-71
2023/09/28 23:02:18;;;;;;;;;;;;;;;22.20;50.98;96020.97;10528593;28;1886;-71
2023/09/28 23:07:19;;;;;;;;;;;;;;;22.19;50.92;96023.88;10531609;28;2606;-71
2023/09/28 23:12:20;;;;;;;;;;;;;;;22.19;50.78;96029.97;10528054;28;1993;-72
2023/09/28 23:17:20;;;;;;;;;;;;;;;22.18;50.75;96033.66;10528605;28;2030;-71
2023/09/28 23:22:21;;;;;;;;;;;;;;;22.18;50.91;96038.13;10521931;28;2083;-71
2023/09/28 23:27:22;;;;;;;;;;;;;;;22.18;50.76;96038.13;10526765;28;1906;-72
2023/09/28 23:32:22;;;;;;;;;;;;;;;22.18;50.89;96041.56;10515797;28;1883;-71
2023/09/28 23:37:23;;;;;;;;;;;;;;;22.16;50.87;96035.78;10522780;28;1852;-71
2023/09/28 23:42:24;;;;;;;;;;;;;;;22.16;50.62;96046.34;10522738;28;4591;-70
2023/09/28 23:47:27;;;;;;;;;;;;;;;22.15;50.88;96034.22;10535987;28;1953;-71
2023/09/28 23:52:27;;;;;;;;;;;;;;;22.15;50.85;96033.44;10521166;28;2637;-72
2023/09/28 23:57:28;;;;;;;;;;;;;;;22.14;50.82;96042.41;10534947;28;1890;-72
